Time;durP1;ratioP1;P1;durP2;ratioP2;P2;SDS_P1;SDS_P2;PMS_P1;PMS_P2;Temp;Humidity;BMP_temperature;BMP_pressure;BME280_temperature;BME280_humidity;BME280_pressure;Samples;Min_cycle;Max_cycle;Signal;HPM_P1;HPM_P2
2021/07/01 00:01:32;;;;;;;6.47;5.87;;;;;;;22.53;56.61;98277.18;2250556;79;20921;-80
2021/07/01 00:04:33;;;;;;;9.13;5.45;;;;;;;22.37;56.53;98271.30;2250546;79;21276;-80
2021/07/01 00:07:34;;;;;;;8.33;5.30;;;;;;;22.42;56.94;98271.95;2249928;79;20912;-80
2021/07/01 00:10:35;;;;;;;5.80;5.30;;;;;;;22.47;56.20;98284.58;2250504;79;20957;-80
2021/07/01 00:13:36;;;;;;;5.37;4.92;;;;;;;22.43;56.98;98281.19;2251022;79;21000;-79
2021/07/01 00:16:37;;;;;;;7.03;4.72;;;;;;;22.51;56.58;98275.52;2250331;79;20983;-79
2021/07/01 00:19:38;;;;;;;8.90;5.30;;;;;;;22.53;56.64;98261.22;2249876;79;21272;-79
2021/07/01 00:22:39;;;;;;;10.82;4.87;;;;;;;22.53;56.21;98266.55;2250479;79;20992;-80
2021/07/01 00:25:41;;;;;;;8.35;5.85;;;;;;;22.45;56.61;98258.05;2251301;79;20988;-79
2021/07/01 00:28:42;;;;;;;6.58;5.72;;;;;;;22.45;56.20;98255.39;2250588;79;21364;-79
2021/07/01 00:31:43;;;;;;;5.45;5.03;;;;;;;22.15;56.49;98256.77;2250753;79;20908;-80
2021/07/01 00:34:44;;;;;;;7.15;6.08;;;;;;;22.04;56.67;98261.22;2250847;79;20940;-79
2021/07/01 00:37:45;;;;;;;8.85;6.08;;;;;;;22.11;57.49;98258.69;2250566;79;20956;-82
2021/07/01 00:40:46;;;;;;;8.38;7.05;;;;;;;22.22;56.65;98250.25;2250948;79;20964;-80
2021/07/01 00:43:47;;;;;;;7.90;7.05;;;;;;;21.56;55.97;98243.73;2250738;79;20900;-81
2021/07/01 00:46:48;;;;;;;8.75;7.78;;;;;;;20.77;56.83;98241.57;2282319;77;21421;-81
2021/07/01 00:49:50;;;;;;;9.90;8.43;;;;;;;20.24;58.13;98239.12;2282953;77;21005;-81
2021/07/01 00:52:51;;;;;;;27.77;7.83;;;;;;;19.85;59.11;98239.19;2283357;78;20986;-81
2021/07/01 00:55:52;;;;;;;9.90;7.15;;;;;;;19.49;59.99;98240.83;2282673;78;20969;-81
2021/07/01 00:58:53;;;;;;;9.00;7.87;;;;;;;19.19;60.83;98237.41;2283007;78;20919;-81
2021/07/01 01:01:54;;;;;;;8.13;7.33;;;;;;;18.87;61.64;98225.63;2282972;78;21088;-81
2021/07/01 01:04:55;;;;;;;8.55;6.78;;;;;;;18.59;62.26;98215.00;2282899;77;20918;-81
2021/07/01 01:07:56;;;;;;;9.20;7.05;;;;;;;18.29;62.93;98225.57;2283075;78;20993;-80
2021/07/01 01:10:57;;;;;;;9.43;6.70;;;;;;;17.99;63.81;98224.63;2282934;77;20904;-80
2021/07/01 01:13:57;;;;;;;9.70;7.05;;;;;;;17.73;64.40;98222.70;2282987;78;20939;-80
2021/07/01 01:16:58;;;;;;;8.23;6.90;;;;;;;17.56;65.00;98234.12;2283071;78;20883;-80
2021/07/01 01:19:59;;;;;;;9.68;7.80;;;;;;;17.40;65.62;98231.45;2282915;78;20875;-80
2021/07/01 01:23:00;;;;;;;8.80;6.55;;;;;;;17.26;66.11;98228.27;2283236;77;20977;-81
2021/07/01 01:26:01;;;;;;;7.55;6.50;;;;;;;17.11;66.60;98228.19;2283628;78;20981;-80
2021/07/01 01:29:02;;;;;;;8.00;6.53;;;;;;;16.95;66.89;98230.77;2283342;77;20974;-80
2021/07/01 01:32:03;;;;;;;9.20;6.92;;;;;;;16.81;67.38;98239.00;2283364;77;20891;-80
2021/07/01 01:35:04;;;;;;;9.95;6.72;;;;;;;16.76;67.79;98238.23;2283191;77;21365;-81
2021/07/01 01:38:05;;;;;;;11.85;7.40;;;;;;;16.72;68.06;98237.89;2282707;78;21322;-82
2021/07/01 01:41:06;;;;;;;11.30;7.30;;;;;;;16.75;68.24;98240.45;2282746;77;20937;-82
2021/07/01 01:44:07;;;;;;;8.23;7.08;;;;;;;16.76;68.33;98239.10;2282356;77;20879;-82
2021/07/01 01:47:08;;;;;;;8.05;7.25;;;;;;;16.76;68.39;98238.23;2250623;79;21292;-82
2021/07/01 01:50:09;;;;;;;7.28;6.58;;;;;;;16.71;68.64;98237.02;2250983;79;20897;-81
2021/07/01 01:53:12;;;;;;;7.75;7.05;;;;;;;16.69;68.63;98248.50;2228661;79;20939;-81
2021/07/01 01:56:13;;;;;;;9.98;7.08;;;;;;;16.66;68.73;98247.25;2250707;79;21051;-81
2021/07/01 01:59:14;;;;;;;8.03;6.50;;;;;;;16.52;68.88;98245.75;2250486;79;20960;-81
2021/07/01 02:02:15;;;;;;;9.05;7.03;;;;;;;16.37;69.19;98252.62;2250501;79;21268;-81
2021/07/01 02:05:16;;;;;;;7.17;6.58;;;;;;;16.26;69.51;98251.97;2250281;79;20936;-81
2021/07/01 02:08:17;;;;;;;7.35;6.65;;;;;;;16.18;69.71;98242.05;2250478;79;20928;-81
2021/07/01 02:11:18;;;;;;;32.73;9.25;;;;;;;16.13;69.89;98238.64;2249649;79;20920;-80
2021/07/01 02:14:19;;;;;;;12.37;7.37;;;;;;;16.08;70.22;98229.97;2250653;79;20960;-81
2021/07/01 02:17:20;;;;;;;10.30;7.35;;;;;;;15.99;70.37;98232.78;2250509;79;20956;-80
2021/07/01 02:20:21;;;;;;;13.48;7.15;;;;;;;15.91;70.60;98233.80;2250639;79;20905;-81
2021/07/01 02:23:22;;;;;;;9.30;6.90;;;;;;;15.87;70.67;98240.02;2250617;79;20999;-81
2021/07/01 02:26:23;;;;;;;28.32;8.75;;;;;;;15.87;70.83;98242.64;2249867;79;20975;-79
2021/07/01 02:29:24;;;;;;;35.48;9.18;;;;;;;15.85;71.04;98249.70;2249663;79;21308;-79
2021/07/01 02:32:25;;;;;;;11.55;7.80;;;;;;;15.86;71.39;98251.44;2249920;79;20937;-79
2021/07/01 02:35:26;;;;;;;9.25;6.62;;;;;;;15.91;71.22;98250.91;2250170;79;20999;-79
2021/07/01 02:38:27;;;;;;;9.00;7.12;;;;;;;15.86;70.99;98263.28;2250321;79;21391;-79
2021/07/01 02:41:28;;;;;;;51.58;10.75;;;;;;;15.75;70.89;98259.98;2250311;79;21316;-80
2021/07/01 02:44:29;;;;;;;8.88;6.53;;;;;;;15.66;71.33;98269.35;2250806;77;20904;-79
2021/07/01 02:47:30;;;;;;;7.78;6.65;;;;;;;15.60;71.38;98281.27;2250807;79;20901;-79
2021/07/01 02:50:30;;;;;;;9.38;6.58;;;;;;;15.53;71.35;98287.48;2250752;79;20904;-79
2021/07/01 02:53:31;;;;;;;8.90;7.00;;;;;;;15.56;71.65;98284.36;2250770;79;20960;-79
2021/07/01 02:56:40;;;;;;;9.40;6.83;;;;;;;15.51;71.57;98290.59;2250498;79;21043;-80
2021/07/01 02:59:35;;;;;;;11.57;6.40;;;;;;;15.46;71.85;98291.12;2249948;79;20905;-79
2021/07/01 03:02:36;;;;;;;10.40;6.60;;;;;;;15.46;71.97;98295.93;2250780;79;20933;-80
2021/07/01 03:05:37;;;;;;;8.63;6.40;;;;;;;15.48;72.05;98302.48;2250644;79;20948;-79
2021/07/01 03:08:37;;;;;;;7.67;5.90;;;;;;;15.48;72.15;98302.48;2250535;79;20900;-80
2021/07/01 03:11:39;;;;;;;6.85;6.20;;;;;;;15.47;71.95;98302.06;2250886;79;20949;-80
2021/07/01 03:14:39;;;;;;;6.97;6.05;;;;;;;15.46;72.02;98300.32;2250814;79;20947;-80
2021/07/01 03:17:41;;;;;;;7.12;6.42;;;;;;;15.45;72.01;98306.48;2250090;79;21339;-78
2021/07/01 03:20:41;;;;;;;7.92;6.20;;;;;;;15.44;71.86;98301.66;2250898;79;20943;-80
2021/07/01 03:23:48;;;;;;;11.33;5.92;;;;;;;15.44;72.15;98308.69;2250322;79;21372;-80
2021/07/01 03:26:49;;;;;;;10.80;7.37;;;;;;;15.50;72.14;98309.45;2249953;79;21025;-80
2021/07/01 03:29:53;;;;;;;9.03;6.28;;;;;;;15.60;72.30;98307.57;2250211;79;21034;-80
2021/07/01 03:32:54;;;;;;;10.03;6.60;;;;;;;15.72;72.09;98309.16;2250174;79;20967;-80
2021/07/01 03:35:55;;;;;;;8.58;6.95;;;;;;;15.80;72.06;98302.86;2250134;79;20909;-80
2021/07/01 03:38:57;;;;;;;8.83;7.05;;;;;;;15.95;71.97;98301.72;2250115;79;20931;-80
2021/07/01 03:41:57;;;;;;;31.35;8.83;;;;;;;16.10;71.98;98304.07;2250239;79;20951;-80
2021/07/01 03:44:58;;;;;;;10.38;6.72;;;;;;;16.28;72.00;98297.58;2250554;77;20945;-80
2021/07/01 03:47:59;;;;;;;9.63;7.37;;;;;;;16.56;72.14;98288.70;2250032;79;20934;-81
2021/07/01 03:51:00;;;;;;;7.85;7.03;;;;;;;16.84;71.92;98284.61;2249865;79;20902;-80
2021/07/01 03:54:03;;;;;;;8.98;6.92;;;;;;;17.15;71.74;98292.69;2248782;79;20968;-80
2021/07/01 03:57:04;;;;;;;87.20;13.18;;;;;;;17.42;71.23;98301.75;2248110;79;21032;-78
2021/07/01 04:00:05;;;;;;;10.35;7.55;;;;;;;18.04;72.33;98307.69;2249260;79;20921;-79
2021/07/01 04:03:06;;;;;;;9.18;6.97;;;;;;;19.03;70.61;98307.55;2249309;79;21288;-80
2021/07/01 04:06:07;;;;;;;7.50;6.70;;;;;;;19.66;68.89;98306.02;2249653;79;21007;-80
2021/07/01 04:09:08;;;;;;;21.65;7.80;;;;;;;20.11;67.28;98309.37;2250399;79;21218;-80
2021/07/01 04:12:09;;;;;;;9.18;8.20;;;;;;;20.44;65.87;98305.14;2250521;79;20944;-80
2021/07/01 04:15:10;;;;;;;14.83;7.70;;;;;;;20.78;65.27;98300.32;2249441;79;21446;-81
2021/07/01 04:18:11;;;;;;;14.63;6.40;;;;;;;21.06;64.50;98300.16;2248972;79;20964;-80
2021/07/01 04:21:12;;;;;;;11.60;7.53;;;;;;;21.26;63.61;98292.77;2248775;79;20908;-80
2021/07/01 04:24:13;;;;;;;8.38;6.67;;;;;;;21.32;61.32;98292.52;2248561;79;20984;-81
2021/07/01 04:27:14;;;;;;;8.75;7.10;;;;;;;21.11;61.94;98297.33;2248029;79;20990;-80
2021/07/01 04:30:15;;;;;;;10.32;6.80;;;;;;;21.41;61.76;98296.14;2248524;79;21304;-82
2021/07/01 04:33:16;;;;;;;9.23;6.97;;;;;;;21.76;60.61;98308.00;2248013;79;20983;-80
2021/07/01 04:36:17;;;;;;;11.87;7.83;;;;;;;21.55;59.76;98311.50;2247997;79;21312;-80
2021/07/01 04:39:20;;;;;;;12.50;9.85;;;;;;;21.35;59.62;98313.64;2248116;79;20999;-80
2021/07/01 04:42:21;;;;;;;12.40;10.68;;;;;;;21.39;59.89;98304.62;2249050;79;20952;-80
2021/07/01 04:45:21;;;;;;;23.12;12.45;;;;;;;21.46;60.12;98310.55;2255155;77;20914;-80
2021/07/01 04:48:22;;;;;;;18.62;13.18;;;;;;;21.80;59.39;98305.61;2281744;78;20938;-81
2021/07/01 04:51:23;;;;;;;18.92;11.95;;;;;;;21.69;58.63;98308.31;2281228;78;20918;-80
2021/07/01 04:54:24;;;;;;;13.95;11.93;;;;;;;21.62;59.44;98316.50;2281642;78;21389;-83
2021/07/01 04:57:25;;;;;;;13.68;11.00;;;;;;;21.59;59.04;98319.28;2280680;78;21005;-81
2021/07/01 05:00:26;;;;;;;17.50;10.90;;;;;;;21.58;59.18;98312.25;2281921;78;20998;-82
2021/07/01 05:03:27;;;;;;;11.15;8.33;;;;;;;21.78;59.61;98314.58;2282350;78;20922;-83
2021/07/01 05:06:28;;;;;;;10.93;7.78;;;;;;;21.83;59.00;98316.58;2282548;77;21012;-81
2021/07/01 05:09:29;;;;;;;8.43;6.45;;;;;;;22.11;58.13;98318.50;2282121;78;20950;-81
2021/07/01 05:12:30;;;;;;;12.82;6.45;;;;;;;21.71;57.47;98310.45;2281621;77;20977;-80
2021/07/01 05:15:31;;;;;;;8.73;6.75;;;;;;;21.39;58.02;98307.28;2282121;77;20932;-78
2021/07/01 05:18:32;;;;;;;7.20;6.33;;;;;;;21.33;59.17;98303.55;2281166;77;20930;-80
2021/07/01 05:21:33;;;;;;;10.48;6.60;;;;;;;21.45;59.43;98305.70;2281692;77;20972;-80
2021/07/01 05:24:34;;;;;;;46.90;9.43;;;;;;;22.20;59.33;98305.27;2281480;77;20989;-80
2021/07/01 05:27:36;;;;;;;8.98;6.65;;;;;;;22.59;57.38;98304.00;2281649;77;21045;-81
2021/07/01 05:30:37;;;;;;;6.00;5.25;;;;;;;22.63;57.73;98308.72;2281871;77;20910;-81
2021/07/01 05:33:38;;;;;;;7.45;5.28;;;;;;;22.96;55.80;98306.34;2281425;78;20986;-80
2021/07/01 05:36:39;;;;;;;6.42;5.40;;;;;;;22.63;56.28;98316.70;2280750;78;20910;-80
2021/07/01 05:39:40;;;;;;;10.55;5.17;;;;;;;22.59;56.88;98314.64;2280204;77;20998;-80
2021/07/01 05:42:41;;;;;;;5.30;4.80;;;;;;;22.93;57.18;98312.66;2281085;77;20926;-81
2021/07/01 05:45:42;;;;;;;5.72;4.67;;;;;;;23.13;55.58;98309.94;2273442;78;20943;-80
2021/07/01 05:48:43;;;;;;;5.47;4.10;;;;;;;23.10;56.61;98312.73;2249028;79;20952;-80
2021/07/01 05:51:45;;;;;;;9.13;4.37;;;;;;;23.40;54.20;98313.08;2249381;79;20913;-80
2021/07/01 05:54:59;;;;;;;5.20;4.70;;;;;;;23.07;55.06;98308.03;2249871;79;21384;-80
2021/07/01 05:58:00;;;;;;;121.15;12.73;;;;;;;23.34;54.58;98309.37;2249114;79;21015;-79
2021/07/01 06:01:01;;;;;;;4.00;3.60;;;;;;;23.23;54.07;98302.84;2249395;79;20908;-81
2021/07/01 06:04:02;;;;;;;3.60;3.35;;;;;;;22.94;53.95;98305.08;2249108;79;20921;-79
2021/07/01 06:07:04;;;;;;;4.33;3.10;;;;;;;22.80;54.15;98317.69;2249090;79;21015;-82
2021/07/01 06:10:05;;;;;;;5.58;3.47;;;;;;;22.49;54.43;98318.14;2249312;79;20943;-82
2021/07/01 06:13:07;;;;;;;8.03;3.87;;;;;;;22.47;54.58;98319.14;2248674;79;20885;-80
2021/07/01 06:16:08;;;;;;;5.90;3.80;;;;;;;22.80;54.75;98318.16;2248967;79;20889;-80
2021/07/01 06:19:09;;;;;;;5.60;3.42;;;;;;;22.91;54.53;98313.20;2248825;79;21284;-83
2021/07/01 06:22:12;;;;;;;4.05;3.62;;;;;;;23.20;53.67;98318.02;2247953;79;21344;-80
2021/07/01 06:25:13;;;;;;;5.15;3.12;;;;;;;23.10;53.45;98323.86;2247977;79;20964;-81
2021/07/01 06:28:14;;;;;;;4.87;3.15;;;;;;;22.87;53.45;98312.95;2248121;79;20971;-83
2021/07/01 06:31:15;;;;;;;4.28;3.27;;;;;;;22.94;53.88;98310.87;2248035;79;20972;-81
2021/07/01 06:34:17;;;;;;;8.23;2.77;;;;;;;23.50;53.41;98315.72;2248528;79;20959;-80
2021/07/01 06:37:18;;;;;;;2.98;2.77;;;;;;;23.44;52.64;98316.48;2248764;79;21168;-79
2021/07/01 06:40:19;;;;;;;4.80;2.50;;;;;;;23.40;52.25;98320.20;2249832;79;21128;-82
2021/07/01 06:43:21;;;;;;;3.58;2.52;;;;;;;23.31;51.99;98316.18;2249619;79;21264;-80
2021/07/01 06:46:25;;;;;;;60.00;7.03;;;;;;;23.39;52.06;98315.34;2264473;77;21136;-81
2021/07/01 06:49:24;;;;;;;5.00;3.05;;;;;;;23.59;51.47;98312.24;2290742;77;20983;-81
2021/07/01 06:52:25;;;;;;;3.40;3.10;;;;;;;23.65;51.36;98303.95;2291278;78;21102;-82
2021/07/01 06:55:26;;;;;;;4.20;2.80;;;;;;;24.29;51.60;98295.41;2290379;78;20924;-82
2021/07/01 06:58:27;;;;;;;4.22;2.47;;;;;;;24.48;49.10;98290.83;2290163;78;20941;-80
2021/07/01 07:01:28;;;;;;;4.78;3.00;;;;;;;24.00;48.10;98291.05;2291165;78;20996;-82
2021/07/01 07:04:29;;;;;;;5.75;2.90;;;;;;;24.17;49.54;98284.84;2291382;78;20969;-80
2021/07/01 07:07:30;;;;;;;6.00;2.15;;;;;;;24.54;50.02;98290.50;2291413;78;20881;-81
2021/07/01 07:10:31;;;;;;;3.87;2.60;;;;;;;24.35;48.72;98292.41;2290988;78;20963;-80
2021/07/01 07:13:32;;;;;;;5.87;2.87;;;;;;;24.03;48.81;98300.69;2290759;78;20995;-81
2021/07/01 07:16:34;;;;;;;6.00;2.47;;;;;;;23.91;50.02;98299.98;2290928;78;20968;-82
2021/07/01 07:19:35;;;;;;;6.15;2.75;;;;;;;23.66;50.71;98297.21;2291335;78;20943;-81
2021/07/01 07:22:36;;;;;;;6.08;2.60;;;;;;;23.67;51.20;98306.06;2290993;78;21325;-81
2021/07/01 07:25:37;;;;;;;4.45;2.80;;;;;;;23.76;51.13;98310.94;2290875;78;20916;-80
2021/07/01 07:28:38;;;;;;;2.77;2.10;;;;;;;23.91;51.17;98312.84;2290325;78;21316;-79
2021/07/01 07:31:39;;;;;;;2.35;2.15;;;;;;;23.86;49.29;98315.34;2290088;78;21407;-82
2021/07/01 07:34:40;;;;;;;4.78;2.40;;;;;;;23.74;48.14;98319.48;2290966;78;20979;-83
2021/07/01 07:37:41;;;;;;;5.55;2.02;;;;;;;23.91;48.24;98311.50;2290960;78;20960;-78
2021/07/01 07:40:42;;;;;;;2.20;1.98;;;;;;;24.23;47.42;98306.33;2291084;78;20969;-82
2021/07/01 07:43:43;;;;;;;2.00;1.85;;;;;;;24.47;47.87;98310.45;2290943;78;20931;-81
2021/07/01 07:46:44;;;;;;;3.37;1.90;;;;;;;24.63;45.91;98311.35;2285954;78;21381;-81
2021/07/01 07:49:45;;;;;;;1.95;1.80;;;;;;;24.57;45.92;98307.68;2280519;78;20895;-81
2021/07/01 07:52:46;;;;;;;4.55;1.70;;;;;;;24.46;45.83;98316.72;2280362;77;20953;-81
2021/07/01 07:55:47;;;;;;;2.45;1.80;;;;;;;24.30;46.11;98319.80;2280850;77;21010;-81
2021/07/01 07:58:49;;;;;;;4.58;1.65;;;;;;;24.12;46.58;98315.74;2280972;77;21449;-81
2021/07/01 08:01:50;;;;;;;2.00;1.82;;;;;;;23.92;47.21;98310.56;2281536;78;21326;-82
2021/07/01 08:04:51;;;;;;;2.45;2.25;;;;;;;24.12;47.17;98318.88;2280755;77;20922;-81
2021/07/01 08:07:52;;;;;;;5.40;2.20;;;;;;;23.67;47.36;98320.72;2280919;77;20910;-82
2021/07/01 08:10:53;;;;;;;3.05;2.10;;;;;;;23.32;48.67;98314.38;2281264;77;20922;-81
2021/07/01 08:13:56;;;;;;;2.37;2.10;;;;;;;23.16;49.27;98327.56;2281180;77;20974;-80
2021/07/01 08:16:56;;;;;;;5.65;2.20;;;;;;;23.09;49.11;98340.77;2280923;77;21593;-81
2021/07/01 08:19:57;;;;;;;4.70;2.00;;;;;;;23.10;49.62;98335.84;2281144;77;20922;-81
2021/07/01 08:22:58;;;;;;;14.83;2.50;;;;;;;23.06;48.91;98328.92;2281316;78;20949;-81
2021/07/01 08:26:01;;;;;;;2.08;1.98;;;;;;;23.06;49.62;98330.26;2281273;77;21029;-78
2021/07/01 08:29:02;;;;;;;1.80;1.70;;;;;;;23.12;48.42;98337.95;2280360;77;20973;-77
2021/07/01 08:32:06;;;;;;;3.30;1.87;;;;;;;22.95;48.18;98344.06;2280919;78;20878;-79
2021/07/01 08:35:05;;;;;;;4.00;1.90;;;;;;;22.86;48.02;98341.83;2281543;77;21412;-82
2021/07/01 08:38:08;;;;;;;2.10;1.70;;;;;;;22.78;48.07;98346.59;2281074;77;20915;-82
2021/07/01 08:41:09;;;;;;;3.85;2.10;;;;;;;22.71;48.82;98346.48;2281223;77;20958;-80
2021/07/01 08:44:10;;;;;;;2.25;2.05;;;;;;;22.59;48.97;98347.89;2281389;77;21002;-81
2021/07/01 08:50:17;;;;;;;3.17;2.37;;;;;;;22.50;49.97;98330.52;2267551;78;20929;-81
2021/07/01 08:53:19;;;;;;;4.70;2.80;;;;;;;22.55;50.72;98338.32;2290259;78;20948;-80
2021/07/01 08:56:20;;;;;;;3.83;2.70;;;;;;;22.72;51.00;98337.56;2290935;78;20940;-80
2021/07/01 08:59:21;;;;;;;3.67;2.80;;;;;;;22.88;51.04;98343.48;2290618;78;21054;-79
2021/07/01 09:02:22;;;;;;;4.90;2.70;;;;;;;22.82;51.24;98346.89;2290287;78;20947;-81
2021/07/01 09:05:23;;;;;;;5.45;2.50;;;;;;;22.80;51.50;98354.08;2290457;78;21331;-80
2021/07/01 09:08:24;;;;;;;4.87;3.00;;;;;;;22.88;51.06;98357.25;2290244;78;20896;-80
2021/07/01 09:11:25;;;;;;;7.50;3.55;;;;;;;22.68;51.76;98350.14;2290302;78;21453;-82
2021/07/01 09:14:26;;;;;;;6.70;3.33;;;;;;;22.50;53.62;98345.14;2290279;78;20980;-80
2021/07/01 09:17:27;;;;;;;7.33;2.65;;;;;;;22.44;54.26;98345.41;2291059;78;20971;-81
2021/07/01 09:20:28;;;;;;;4.87;2.98;;;;;;;22.66;53.72;98350.67;2291120;78;20948;-81
2021/07/01 09:23:29;;;;;;;3.00;2.80;;;;;;;22.56;54.08;98351.55;2291205;78;21388;-83
2021/07/01 09:26:30;;;;;;;3.55;3.05;;;;;;;22.69;54.16;98351.87;2291726;78;21348;-82
2021/07/01 09:29:31;;;;;;;3.37;3.08;;;;;;;22.86;53.84;98353.80;2291638;78;20955;-81
2021/07/01 09:32:34;;;;;;;5.42;2.60;;;;;;;22.83;53.91;98347.28;2291115;78;20916;-81
2021/07/01 09:35:35;;;;;;;6.85;3.35;;;;;;;22.57;53.94;98344.44;2291211;78;20996;-83
2021/07/01 09:38:36;;;;;;;2.85;2.50;;;;;;;22.43;54.62;98341.48;2291479;78;21510;-80
2021/07/01 09:41:37;;;;;;;4.85;2.70;;;;;;;22.43;54.54;98353.45;2291601;78;20952;-82
2021/07/01 09:44:38;;;;;;;2.98;2.45;;;;;;;22.49;54.93;98355.84;2291802;78;20928;-81
2021/07/01 09:47:40;;;;;;;5.10;3.33;;;;;;;22.37;55.48;98363.89;2285115;78;21040;-83
2021/07/01 09:50:50;;;;;;;5.70;3.47;;;;;;;22.38;55.54;98364.75;2280986;78;20964;-82
2021/07/01 09:53:43;;;;;;;2.80;2.60;;;;;;;22.56;55.66;98361.33;2280037;78;21032;-81
2021/07/01 09:56:44;;;;;;;2.92;2.65;;;;;;;22.51;55.15;98368.61;2281808;78;20980;-82
2021/07/01 09:59:46;;;;;;;3.02;2.75;;;;;;;22.50;55.07;98371.73;2281749;78;21374;-80
2021/07/01 10:02:47;;;;;;;3.80;3.05;;;;;;;22.42;55.32;98384.97;2281976;78;21371;-81
2021/07/01 10:05:48;;;;;;;3.62;2.95;;;;;;;22.50;55.37;98376.19;2281511;78;21015;-79
2021/07/01 10:11:52;;;;;;;3.12;2.83;;;;;;;22.63;55.45;98374.75;2264366;78;20929;-83
2021/07/01 10:14:55;;;;;;;3.58;3.08;;;;;;;22.84;54.36;98384.94;2281411;78;20982;-82
2021/07/01 10:17:55;;;;;;;3.27;2.98;;;;;;;22.59;54.49;98379.81;2281493;78;20981;-84
2021/07/01 10:20:57;;;;;;;5.90;2.98;;;;;;;22.39;55.23;98379.78;2280808;78;20940;-79
2021/07/01 10:23:58;;;;;;;6.30;3.05;;;;;;;22.34;55.83;98376.45;2280449;78;20955;-82
2021/07/01 10:27:01;;;;;;;9.73;3.25;;;;;;;22.45;55.06;98382.17;2280928;78;20905;-81
2021/07/01 10:30:02;;;;;;;3.47;2.80;;;;;;;22.48;54.75;98380.71;2281374;78;21036;-80
2021/07/01 10:33:03;;;;;;;4.22;3.02;;;;;;;22.38;54.60;98377.59;2281338;78;20881;-80
2021/07/01 10:36:04;;;;;;;32.42;26.15;;;;;;;22.41;55.14;98387.23;2282162;78;21307;-81
2021/07/01 10:39:05;;;;;;;27.73;16.35;;;;;;;22.57;55.39;98379.02;2281329;78;20909;-81
2021/07/01 10:42:07;;;;;;;12.15;8.13;;;;;;;23.12;54.88;98381.88;2281691;78;20968;-81
2021/07/01 10:45:08;;;;;;;18.45;16.55;;;;;;;23.23;53.53;98375.59;2281447;78;21344;-81
2021/07/01 10:48:09;;;;;;;8.15;4.50;;;;;;;23.18;53.97;98382.93;2287669;78;20936;-82
2021/07/01 10:51:11;;;;;;;8.50;3.22;;;;;;;22.92;53.43;98383.26;2291238;78;20919;-80
2021/07/01 10:54:12;;;;;;;4.58;3.00;;;;;;;22.48;54.27;98386.03;2291839;78;21372;-80
2021/07/01 10:57:13;;;;;;;2.75;2.55;;;;;;;22.42;54.57;98391.15;2291877;78;20986;-80
2021/07/01 11:00:14;;;;;;;13.43;5.85;;;;;;;22.29;54.55;98390.41;2290460;78;20968;-81
2021/07/01 11:03:15;;;;;;;9.23;5.00;;;;;;;22.43;55.21;98399.53;2290567;78;20959;-79
2021/07/01 11:06:18;;;;;;;11.38;4.37;;;;;;;22.85;54.78;98396.84;2290617;78;21729;-79
2021/07/01 11:09:19;;;;;;;5.25;3.33;;;;;;;23.06;54.45;98399.00;2290743;78;21277;-80
2021/07/01 11:12:21;;;;;;;17.60;5.15;;;;;;;23.27;53.94;98400.28;2290465;78;21359;-81
2021/07/01 11:15:22;;;;;;;9.83;4.28;;;;;;;23.44;54.15;98401.72;2290701;78;21599;-81
2021/07/01 11:18:23;;;;;;;6.10;3.12;;;;;;;23.50;53.06;98398.77;2289796;78;20928;-80
2021/07/01 11:21:24;;;;;;;22.13;15.75;;;;;;;23.41;53.17;98398.73;2290570;78;20885;-78
2021/07/01 11:24:25;;;;;;;10.65;7.47;;;;;;;23.33;52.25;98396.86;2291054;78;20920;-80
2021/07/01 11:27:26;;;;;;;8.45;5.60;;;;;;;22.92;53.58;98398.77;2291066;78;20972;-80
2021/07/01 11:30:27;;;;;;;7.62;5.67;;;;;;;22.74;54.07;98380.92;2291128;78;20984;-79
2021/07/01 11:33:28;;;;;;;17.05;4.25;;;;;;;23.07;54.40;98375.91;2291756;78;20978;-81
2021/07/01 11:36:29;;;;;;;5.90;3.50;;;;;;;23.11;53.73;98366.84;2291755;78;20925;-81
2021/07/01 11:39:31;;;;;;;6.15;3.70;;;;;;;22.84;53.87;98361.85;2290732;78;20912;-79
2021/07/01 11:42:32;;;;;;;7.95;3.45;;;;;;;22.58;54.32;98351.95;2291002;78;20972;-80
2021/07/01 11:45:32;;;;;;;4.40;4.00;;;;;;;22.67;54.29;98353.73;2291086;78;20876;-81
2021/07/01 11:48:34;;;;;;;4.87;4.28;;;;;;;23.02;54.18;98359.28;2283885;78;20950;-81
2021/07/01 11:51:35;;;;;;;9.08;3.40;;;;;;;23.65;53.27;98361.23;2281292;78;20944;-82
2021/07/01 11:54:36;;;;;;;5.67;3.20;;;;;;;24.27;52.64;98362.59;2281352;77;21155;-79
2021/07/01 11:57:36;;;;;;;4.72;3.10;;;;;;;24.75;51.02;98374.75;2280663;77;21318;-80
2021/07/01 12:00:37;;;;;;;28.00;4.67;;;;;;;25.07;49.76;98380.20;2280809;78;20981;-82
2021/07/01 12:03:38;;;;;;;5.33;3.47;;;;;;;25.16;49.57;98377.06;2280005;77;21357;-81
2021/07/01 12:06:39;;;;;;;20.35;3.77;;;;;;;25.38;48.50;98370.93;2279432;77;20945;-78
2021/07/01 12:09:41;;;;;;;10.10;3.40;;;;;;;25.33;48.73;98378.34;2279895;78;20954;-78
2021/07/01 12:12:42;;;;;;;11.25;8.85;;;;;;;25.38;49.27;98378.95;2279883;78;20954;-82
2021/07/01 12:15:43;;;;;;;8.28;3.70;;;;;;;25.62;48.02;98372.70;2280197;77;21346;-82
2021/07/01 12:18:47;;;;;;;11.75;3.47;;;;;;;25.84;48.41;98382.20;2280873;77;21572;-82
2021/07/01 12:21:47;;;;;;;7.00;5.73;;;;;;;26.05;47.57;98381.47;2281290;78;20942;-81
2021/07/01 12:24:48;;;;;;;7.03;4.08;;;;;;;26.17;47.03;98388.30;2281004;78;20918;-82
2021/07/01 12:27:49;;;;;;;6.75;3.40;;;;;;;26.30;47.27;98399.14;2280808;78;21402;-81
2021/07/01 12:30:51;;;;;;;8.88;3.40;;;;;;;26.41;46.38;98402.08;2279959;78;20909;-82
2021/07/01 12:33:53;;;;;;;5.70;3.30;;;;;;;26.25;46.63;98402.09;2279773;78;20960;-83
2021/07/01 12:36:54;;;;;;;5.37;3.52;;;;;;;26.32;46.71;98396.80;2280435;77;20962;-81
2021/07/01 12:39:55;;;;;;;11.88;4.75;;;;;;;26.39;46.71;98397.30;2280521;78;20918;-80
2021/07/01 12:42:56;;;;;;;14.20;6.15;;;;;;;26.14;46.68;98397.84;2280494;78;20982;-81
2021/07/01 12:45:57;;;;;;;21.60;10.05;;;;;;;26.60;46.57;98388.45;2280636;77;20986;-82
2021/07/01 12:48:58;;;;;;;6.53;5.00;;;;;;;26.82;46.03;98379.98;2280312;77;20962;-80
2021/07/01 12:52:00;;;;;;;5.17;3.65;;;;;;;27.21;45.25;98372.69;2279151;77;20926;-79
2021/07/01 12:55:01;;;;;;;16.13;3.77;;;;;;;27.51;43.97;98369.39;2280406;77;20965;-80
2021/07/01 12:58:03;;;;;;;18.80;4.17;;;;;;;28.10;43.43;98368.69;2280547;77;21005;-80
2021/07/01 13:01:04;;;;;;;7.30;3.05;;;;;;;28.31;42.58;98371.78;2280435;77;21334;-83
2021/07/01 13:04:04;;;;;;;6.08;3.52;;;;;;;28.28;42.02;98366.62;2280423;77;21319;-81
2021/07/01 13:07:05;;;;;;;5.78;3.10;;;;;;;27.72;41.58;98371.67;2280194;78;20968;-80
2021/07/01 13:10:06;;;;;;;8.85;3.30;;;;;;;26.63;43.02;98377.56;2280673;78;20914;-79
2021/07/01 13:13:07;;;;;;;6.10;3.25;;;;;;;26.18;44.24;98379.33;2280548;78;20950;-79
2021/07/01 13:16:08;;;;;;;8.20;3.10;;;;;;;25.49;45.02;98379.69;2280575;77;21010;-79
2021/07/01 13:19:09;;;;;;;4.62;2.85;;;;;;;25.13;46.17;98383.02;2281053;78;20911;-78
2021/07/01 13:22:10;;;;;;;5.33;3.12;;;;;;;24.95;47.04;98384.84;2280795;77;20911;-80
2021/07/01 13:25:11;;;;;;;15.68;3.98;;;;;;;25.03;46.90;98386.66;2281404;77;20891;-76
2021/07/01 13:28:12;;;;;;;6.95;2.72;;;;;;;25.06;47.30;98386.48;2281355;77;20962;-80
2021/07/01 13:31:13;;;;;;;4.30;2.70;;;;;;;24.99;47.57;98381.09;2281627;78;20910;-80
2021/07/01 13:34:14;;;;;;;3.58;3.10;;;;;;;24.86;47.03;98380.85;2281918;77;20989;-79
2021/07/01 13:37:15;;;;;;;3.45;2.50;;;;;;;25.06;47.68;98386.48;2281387;78;20946;-80
2021/07/01 13:40:16;;;;;;;4.12;2.87;;;;;;;25.79;47.50;98388.28;2280855;77;20914;-79
2021/07/01 13:43:17;;;;;;;3.50;2.98;;;;;;;25.67;46.59;98391.18;2280906;77;20966;-79
2021/07/01 13:46:18;;;;;;;6.47;3.10;;;;;;;25.11;47.64;98384.44;2281872;78;20995;-78
2021/07/01 13:49:19;;;;;;;4.08;3.00;;;;;;;25.46;47.38;98388.34;2288719;78;20960;-80
2021/07/01 13:52:20;;;;;;;4.75;3.02;;;;;;;25.93;46.90;98389.70;2290356;78;20955;-78
2021/07/01 13:55:20;;;;;;;3.87;2.90;;;;;;;25.52;46.06;98387.53;2291043;78;20948;-80
2021/07/01 13:58:21;;;;;;;4.05;3.00;;;;;;;25.26;45.77;98394.31;2291430;78;20904;-79
2021/07/01 14:01:24;;;;;;;3.80;2.90;;;;;;;25.07;46.72;98389.08;2290817;78;20912;-80
2021/07/01 14:04:25;;;;;;;7.93;2.80;;;;;;;24.97;46.82;98388.28;2290406;78;20972;-80
2021/07/01 14:07:26;;;;;;;8.08;3.08;;;;;;;25.05;47.46;98388.77;2290941;78;21249;-80
2021/07/01 14:10:27;;;;;;;2.90;2.50;;;;;;;25.36;47.37;98392.00;2290985;78;21312;-81
2021/07/01 14:13:28;;;;;;;3.87;2.67;;;;;;;25.24;45.91;98388.66;2290906;78;21369;-79
2021/07/01 14:16:29;;;;;;;2.83;2.20;;;;;;;24.98;45.89;98388.71;2291304;78;20897;-79